Time;durP1;ratioP1;P1;durP2;ratioP2;P2;SDS_P1;SDS_P2;PMS_P1;PMS_P2;Temp;Humidity;BMP_temperature;BMP_pressure;BME280_temperature;BME280_humidity;BME280_pressure;Samples;Min_cycle;Max_cycle;Signal;HPM_P1;HPM_P2
2022/01/22 00:00:24;;;;;;;31.30;14.25;;;;;;;-4.09;71.82;97321.03;4701588;30;20053;-57
2022/01/22 00:02:51;;;;;;;35.58;13.88;;;;;;;-3.96;71.57;97328.84;4701762;30;20061;-57
2022/01/22 00:05:19;;;;;;;31.88;14.10;;;;;;;-3.94;71.22;97336.41;4700278;30;20519;-59
2022/01/22 00:07:45;;;;;;;34.50;15.30;;;;;;;-3.87;71.01;97332.03;4701657;30;20489;-58
2022/01/22 00:10:17;;;;;;;40.83;17.58;;;;;;;-3.82;71.42;97339.22;4701698;30;20100;-59
2022/01/22 00:13:06;;;;;;;40.63;16.30;;;;;;;-3.77;70.93;97342.81;4701535;30;20087;-58
2022/01/22 00:15:31;;;;;;;45.45;18.08;;;;;;;-3.69;71.09;97332.28;4700434;30;20049;-58
2022/01/22 00:17:57;;;;;;;48.05;18.30;;;;;;;-3.67;71.13;97343.25;4701574;30;20050;-57
2022/01/22 00:20:26;;;;;;;33.67;14.95;;;;;;;-3.75;70.00;97340.84;4701121;30;20072;-56
2022/01/22 00:22:52;;;;;;;40.25;16.10;;;;;;;-3.76;70.33;97346.22;4701430;30;20045;-59
2022/01/22 00:25:20;;;;;;;34.83;15.82;;;;;;;-3.77;70.36;97349.78;4701434;30;20468;-56
2022/01/22 00:27:48;;;;;;;32.85;13.48;;;;;;;-3.97;69.35;97350.53;4685624;30;20111;-57
2022/01/22 00:30:16;;;;;;;31.83;13.88;;;;;;;-4.06;69.56;97350.88;4701404;30;20053;-57
2022/01/22 00:32:42;;;;;;;35.05;14.02;;;;;;;-4.11;70.45;97352.28;4701342;30;20077;-57
2022/01/22 00:35:09;;;;;;;37.17;15.77;;;;;;;-4.11;70.69;97348.91;4701278;30;20053;-58
2022/01/22 00:37:39;;;;;;;33.55;14.00;;;;;;;-4.07;70.64;97350.09;4699644;30;20060;-58
2022/01/22 00:40:06;;;;;;;24.38;12.95;;;;;;;-4.10;70.13;97350.50;4699793;30;20057;-57
2022/01/22 00:42:33;;;;;;;32.40;14.40;;;;;;;-4.08;69.85;97356.28;4700996;30;20600;-56
2022/01/22 00:44:59;;;;;;;36.42;13.88;;;;;;;-4.08;70.19;97355.47;4700935;30;20504;-56
2022/01/22 00:47:25;;;;;;;30.63;13.98;;;;;;;-4.05;70.15;97362.84;4700905;30;20049;-55
2022/01/22 00:49:51;;;;;;;28.75;14.13;;;;;;;-4.04;70.41;97373.00;4699603;30;20057;-59
2022/01/22 00:52:17;;;;;;;38.00;14.77;;;;;;;-4.04;69.95;97369.63;4670891;30;20046;-58
2022/01/22 00:54:43;;;;;;;31.65;13.10;;;;;;;-4.02;69.48;97376.19;4685620;30;20065;-59
2022/01/22 00:57:08;;;;;;;30.80;14.05;;;;;;;-4.04;68.90;97367.81;4699496;30;20049;-56
2022/01/22 00:59:35;;;;;;;33.55;14.82;;;;;;;-4.06;71.05;97374.97;4700579;30;20049;-58
2022/01/22 01:02:02;;;;;;;30.95;14.25;;;;;;;-3.99;69.48;97380.19;4699392;30;20058;-57
2022/01/22 01:04:29;;;;;;;32.85;14.10;;;;;;;-3.98;68.64;97374.81;4685370;30;20061;-57
2022/01/22 01:06:55;;;;;;;38.20;14.32;;;;;;;-3.96;69.20;97383.19;4700322;30;20057;-57
2022/01/22 01:09:21;;;;;;;33.92;14.40;;;;;;;-4.00;68.81;97379.41;4699257;30;20050;-58
2022/01/22 01:11:48;;;;;;;33.40;15.65;;;;;;;-4.02;69.12;97383.19;4699194;30;20057;-57
2022/01/22 01:14:21;;;;;;;33.22;14.40;;;;;;;-4.06;69.18;97379.34;4699206;30;20141;-58
2022/01/22 01:33:10;;;;;;;32.90;14.80;;;;;;;-4.61;71.31;97387.84;4699042;30;20347;-58
2022/01/22 01:35:38;;;;;;;31.48;14.65;;;;;;;-4.60;71.05;97386.06;4698971;30;20068;-57
2022/01/22 01:38:05;;;;;;;31.50;14.35;;;;;;;-4.61;71.69;97387.84;4699991;30;20098;-58
2022/01/22 01:40:33;;;;;;;37.40;15.18;;;;;;;-4.68;71.71;97381.81;4698685;30;20401;-57
2022/01/22 01:43:23;;;;;;;33.50;15.00;;;;;;;-4.66;72.12;97392.00;4700218;30;20049;-57
2022/01/22 01:46:09;;;;;;;34.67;15.45;;;;;;;-4.75;72.28;97382.78;4698864;30;20061;-58
2022/01/22 01:48:38;;;;;;;31.05;13.73;;;;;;;-4.77;72.07;97387.34;4700174;30;20103;-58
2022/01/22 01:51:06;;;;;;;32.25;14.40;;;;;;;-4.80;72.08;97388.50;4698761;30;20424;-57
2022/01/22 01:53:50;;;;;;;33.20;14.32;;;;;;;-4.88;72.47;97386.88;4684142;30;20056;-58
2022/01/22 01:59:02;;;;;;;34.97;14.38;;;;;;;-4.94;72.42;97386.81;4686268;30;20064;-57
2022/01/22 02:01:28;;;;;;;30.77;15.45;;;;;;;-4.97;72.93;97387.19;4683784;30;20088;-57
2022/01/22 02:03:54;;;;;;;32.67;14.35;;;;;;;-5.02;73.72;97391.16;4698331;30;20536;-57
2022/01/22 02:06:22;;;;;;;35.78;15.50;;;;;;;-5.00;73.37;97390.16;4698361;30;20089;-58
2022/01/22 02:08:48;;;;;;;31.48;15.70;;;;;;;-4.92;73.92;97400.34;4698292;30;20050;-57
2022/01/22 02:11:25;;;;;;;33.70;14.88;;;;;;;-4.89;73.17;97405.94;4698543;30;20053;-57
2022/01/22 02:25:44;;;;;;;31.65;14.45;;;;;;;-4.52;73.29;97408.41;4679788;30;20072;-57
2022/01/22 02:28:12;;;;;;;29.52;14.70;;;;;;;-4.49;71.76;97416.56;4651153;30;20054;-59
2022/01/22 02:30:41;;;;;;;26.85;14.45;;;;;;;-4.50;72.39;97412.41;4679674;30;20065;-58
2022/01/22 02:33:42;;;;;;;25.77;11.93;;;;;;;-4.39;71.83;97413.63;4679449;30;20066;-57
2022/01/22 02:36:20;;;;;;;30.27;14.15;;;;;;;-4.46;71.41;97416.19;4651254;30;20058;-56
2022/01/22 02:41:31;;;;;;;27.00;12.93;;;;;;;-4.38;71.68;97423.00;4665094;30;20108;-58
2022/01/22 02:43:58;;;;;;;33.35;14.13;;;;;;;-4.29;72.13;97426.22;4665222;30;20061;-57
2022/01/22 02:46:26;;;;;;;33.65;14.30;;;;;;;-4.26;71.77;97424.06;4651114;30;20061;-60
2022/01/22 02:48:54;;;;;;;34.03;15.10;;;;;;;-4.21;72.26;97423.47;4670903;30;20068;-58
2022/01/22 02:51:24;;;;;;;29.98;13.90;;;;;;;-4.22;71.99;97425.28;4697845;30;20049;-57
2022/01/22 02:53:54;;;;;;;31.83;14.02;;;;;;;-4.25;71.67;97430.03;4697839;30;20061;-57
2022/01/22 02:56:22;;;;;;;29.90;13.60;;;;;;;-4.36;72.03;97434.75;4697480;30;20466;-58
2022/01/22 02:58:48;;;;;;;32.83;14.48;;;;;;;-4.35;71.58;97426.00;4697611;30;20107;-56
2022/01/22 03:01:16;;;;;;;36.20;14.32;;;;;;;-4.34;71.76;97437.94;4697526;30;20108;-56
2022/01/22 03:03:43;;;;;;;33.35;15.05;;;;;;;-4.33;72.65;97428.38;4697558;30;20049;-56
2022/01/22 03:06:09;;;;;;;29.67;13.88;;;;;;;-4.31;72.38;97439.34;4697706;30;20095;-59
2022/01/22 03:08:38;;;;;;;30.08;14.38;;;;;;;-4.27;71.90;97442.34;4668604;30;20045;-56
2022/01/22 03:11:15;;;;;;;26.77;13.98;;;;;;;-4.31;72.12;97447.13;4683022;30;20061;-57
2022/01/22 03:16:48;;;;;;;31.15;15.05;;;;;;;-4.37;72.28;97451.25;4697389;30;20145;-58
2022/01/22 03:19:58;;;;;;;26.85;13.68;;;;;;;-4.41;72.32;97455.22;4697300;30;20054;-57
2022/01/22 03:27:28;;;;;;;28.05;14.23;;;;;;;-4.63;73.17;97464.00;4697219;30;20535;-55
2022/01/22 03:29:54;;;;;;;28.13;14.02;;;;;;;-4.74;72.46;97472.25;4698453;30;20096;-57
2022/01/22 03:32:21;;;;;;;30.40;13.63;;;;;;;-4.78;73.07;97476.22;4697229;30;20071;-58
2022/01/22 03:34:56;;;;;;;30.00;12.73;;;;;;;-4.85;73.16;97481.34;4697205;30;20553;-57
2022/01/22 03:37:24;;;;;;;30.92;14.35;;;;;;;-4.90;73.44;97484.47;4697036;30;20471;-56
2022/01/22 03:39:50;;;;;;;25.05;13.27;;;;;;;-4.97;73.04;97490.53;4698655;30;20123;-57
2022/01/22 03:42:16;;;;;;;33.95;14.45;;;;;;;-5.00;73.52;97489.13;4697023;30;20080;-57
2022/01/22 03:44:42;;;;;;;29.63;13.52;;;;;;;-4.98;73.13;97491.53;4696854;30;20054;-58
2022/01/22 03:47:08;;;;;;;27.00;12.40;;;;;;;-5.02;72.95;97491.91;4682404;30;20076;-56
2022/01/22 03:49:35;;;;;;;26.85;12.88;;;;;;;-4.99;73.47;97495.13;4682422;30;20058;-56
2022/01/22 03:52:03;;;;;;;27.00;12.48;;;;;;;-4.97;72.89;97491.38;4696646;30;20065;-56
2022/01/22 03:54:28;;;;;;;31.58;13.18;;;;;;;-5.04;73.20;97496.44;4696953;30;20054;-58
2022/01/22 03:56:54;;;;;;;31.40;12.85;;;;;;;-5.08;73.00;97505.56;4698149;30;20418;-57
2022/01/22 03:59:27;;;;;;;35.08;14.00;;;;;;;-5.08;73.25;97509.94;4697093;30;20057;-56
2022/01/22 04:04:52;;;;;;;32.88;13.15;;;;;;;-5.06;72.86;97518.28;4682419;30;20120;-57
2022/01/22 04:10:05;;;;;;;26.30;12.50;;;;;;;-5.05;73.22;97519.91;4696949;30;20080;-57
2022/01/22 04:15:06;;;;;;;25.75;10.82;;;;;;;-5.10;73.17;97517.06;4696940;30;20434;-55
2022/01/22 04:25:44;;;;;;;28.20;11.60;;;;;;;-5.03;73.68;97531.66;4698248;30;20057;-59
2022/01/22 04:28:12;;;;;;;28.80;11.63;;;;;;;-5.01;74.10;97536.63;4698185;30;20073;-54
2022/01/22 04:30:38;;;;;;;32.50;12.07;;;;;;;-4.96;73.54;97534.31;4696627;30;20063;-58
2022/01/22 04:33:04;;;;;;;26.40;11.15;;;;;;;-5.02;73.51;97533.25;4696682;30;20057;-56
2022/01/22 04:35:31;;;;;;;26.55;11.02;;;;;;;-4.92;73.00;97545.88;4696595;30;20054;-60
2022/01/22 04:37:57;;;;;;;24.63;10.65;;;;;;;-5.01;73.47;97539.22;4682251;30;20061;-58
2022/01/22 04:40:22;;;;;;;25.15;11.27;;;;;;;-5.06;73.92;97541.53;4697746;30;20481;-57
2022/01/22 04:42:48;;;;;;;23.63;11.15;;;;;;;-5.03;73.43;97542.00;4699465;30;20049;-57
2022/01/22 04:45:27;;;;;;;32.35;13.70;;;;;;;-5.00;73.66;97548.56;4700019;30;20493;-60
2022/01/22 04:56:11;;;;;;;27.10;11.60;;;;;;;-5.07;74.25;97550.28;4700934;30;20050;-57
2022/01/22 04:58:37;;;;;;;26.50;11.50;;;;;;;-5.07;74.13;97561.41;4700925;30;20052;-56
2022/01/22 05:01:02;;;;;;;26.30;12.05;;;;;;;-5.06;73.91;97563.03;4699269;30;20516;-57
2022/01/22 05:03:48;;;;;;;27.35;12.27;;;;;;;-5.01;73.73;97562.47;4680901;30;20101;-57
2022/01/22 05:06:32;;;;;;;25.55;10.43;;;;;;;-5.00;74.04;97568.44;4681071;30;20060;-56
2022/01/22 05:09:17;;;;;;;23.13;11.00;;;;;;;-5.00;73.56;97569.22;4681163;30;20054;-57
2022/01/22 05:11:55;;;;;;;26.55;10.88;;;;;;;-4.96;73.93;97580.81;4652507;30;20125;-57
2022/01/22 05:14:22;;;;;;;22.58;11.52;;;;;;;-4.88;74.11;97588.47;4680905;30;20128;-58
2022/01/22 05:16:48;;;;;;;21.67;10.95;;;;;;;-4.83;73.54;97596.44;4666498;30;20565;-57
2022/01/22 05:19:31;;;;;;;21.20;9.98;;;;;;;-4.82;73.25;97592.91;4666496;30;20085;-58
2022/01/22 05:22:04;;;;;;;26.50;11.48;;;;;;;-4.81;73.23;97594.50;4666491;30;20060;-58
2022/01/22 05:24:33;;;;;;;22.25;10.60;;;;;;;-4.81;73.50;97607.41;4653245;30;20148;-58
2022/01/22 05:38:34;;;;;;;29.13;10.75;;;;;;;-4.76;73.26;97631.91;4700238;30;20070;-58
2022/01/22 05:41:00;;;;;;;26.88;10.90;;;;;;;-4.73;73.52;97628.97;4699030;30;20123;-57
2022/01/22 05:43:27;;;;;;;25.52;12.02;;;;;;;-4.69;73.33;97637.97;4684163;30;20508;-57
2022/01/22 05:45:52;;;;;;;20.65;10.13;;;;;;;-4.64;73.56;97631.25;4700180;30;20057;-58
2022/01/22 05:48:19;;;;;;;28.58;11.50;;;;;;;-4.58;73.41;97637.50;4698831;30;20397;-56
2022/01/22 05:50:58;;;;;;;28.65;11.15;;;;;;;-4.57;73.16;97639.88;4698597;30;20410;-59
2022/01/22 05:53:39;;;;;;;22.40;9.85;;;;;;;-4.55;73.46;97642.28;4697767;30;20084;-55
2022/01/22 06:01:45;;;;;;;23.90;10.52;;;;;;;-4.58;73.51;97653.00;4698578;30;20041;-56
2022/01/22 06:04:19;;;;;;;22.35;10.80;;;;;;;-4.58;73.69;97645.25;4685074;30;20117;-57
2022/01/22 06:06:49;;;;;;;27.08;10.10;;;;;;;-4.51;73.95;97655.66;4698157;30;20484;-53
2022/01/22 06:09:14;;;;;;;25.92;11.32;;;;;;;-4.53;74.60;97655.81;4698490;30;20145;-58
2022/01/22 06:11:54;;;;;;;24.55;10.52;;;;;;;-4.48;73.79;97663.03;4699555;30;20049;-52
2022/01/22 06:14:24;;;;;;;26.15;12.13;;;;;;;-4.43;73.48;97665.88;4686105;30;20426;-57
2022/01/22 06:16:50;;;;;;;24.30;10.65;;;;;;;-4.39;73.46;97672.28;4698367;30;20103;-56
2022/01/22 06:19:30;;;;;;;26.58;13.20;;;;;;;-4.29;73.03;97671.97;4699575;30;20155;-55
2022/01/22 06:21:56;;;;;;;30.95;12.20;;;;;;;-4.25;73.66;97680.97;4698124;30;20132;-57
2022/01/22 06:24:22;;;;;;;23.67;9.93;;;;;;;-4.26;73.36;97680.19;4698269;30;20489;-57
2022/01/22 06:26:50;;;;;;;24.38;13.07;;;;;;;-4.15;73.36;97681.47;4698248;30;20160;-57
2022/01/22 06:29:16;;;;;;;31.55;11.00;;;;;;;-4.20;73.25;97682.03;4698539;30;20149;-60
2022/01/22 06:31:42;;;;;;;26.77;11.70;;;;;;;-4.18;73.01;97687.00;4698221;30;20072;-58
2022/01/22 06:34:09;;;;;;;28.73;11.65;;;;;;;-4.11;73.46;97693.06;4698026;30;20065;-57
2022/01/22 06:36:37;;;;;;;28.60;11.43;;;;;;;-4.13;73.06;97695.03;4697745;30;20145;-57
2022/01/22 06:39:12;;;;;;;27.73;12.93;;;;;;;-4.17;73.58;97693.81;4697294;30;20120;-57
2022/01/22 06:41:59;;;;;;;23.73;12.07;;;;;;;-4.03;73.23;97703.28;4662689;30;20440;-55
2022/01/22 06:44:43;;;;;;;26.17;11.95;;;;;;;-3.98;72.93;97700.94;4699084;30;20073;-56
2022/01/22 06:47:30;;;;;;;27.23;12.52;;;;;;;-3.81;73.22;97711.03;4686389;30;20137;-62
2022/01/22 06:50:07;;;;;;;27.25;12.77;;;;;;;-3.80;72.20;97695.28;4680231;30;20506;-61
2022/01/22 06:52:41;;;;;;;24.48;12.38;;;;;;;-3.69;73.30;97707.75;4681601;30;20052;-60
2022/01/22 06:55:18;;;;;;;26.55;13.45;;;;;;;-3.54;73.11;97719.81;4665540;30;20430;-61
2022/01/22 06:57:44;;;;;;;24.73;12.30;;;;;;;-3.54;72.67;97723.19;4680196;30;20488;-60
2022/01/22 07:00:17;;;;;;;29.17;12.27;;;;;;;-3.45;72.41;97731.63;4665737;30;20053;-57
2022/01/22 07:02:55;;;;;;;30.48;13.32;;;;;;;-3.46;72.83;97724.84;4679374;30;20141;-58
2022/01/22 07:05:21;;;;;;;31.40;13.13;;;;;;;-3.35;72.54;97737.28;4679919;30;20148;-61
2022/01/22 07:08:07;;;;;;;32.40;12.63;;;;;;;-3.28;71.54;97739.94;4679738;30;20058;-60
2022/01/22 07:10:37;;;;;;;33.90;13.75;;;;;;;-3.17;71.96;97748.97;4680137;30;20153;-60
2022/01/22 07:13:02;;;;;;;29.42;13.18;;;;;;;-3.17;71.53;97749.78;4681463;30;20132;-59
2022/01/22 07:15:28;;;;;;;33.30;15.88;;;;;;;-3.07;72.11;97750.22;4679291;30;20424;-61
2022/01/22 07:18:02;;;;;;;28.55;13.50;;;;;;;-3.22;71.39;97723.63;4680261;30;20079;-59
2022/01/22 07:20:30;;;;;;;32.00;13.73;;;;;;;-2.94;71.28;97766.84;4681240;30;20089;-58
2022/01/22 07:23:14;;;;;;;32.03;14.25;;;;;;;-2.95;71.32;97765.25;4679898;30;20053;-58
2022/01/22 07:25:52;;;;;;;21.83;12.48;;;;;;;-2.95;70.63;97775.63;4679545;30;20062;-57
2022/01/22 07:28:30;;;;;;;28.80;12.52;;;;;;;-2.96;70.31;97774.81;4665550;30;21137;-58
2022/01/22 07:31:00;;;;;;;29.63;14.10;;;;;;;-2.92;70.56;97781.22;4679340;30;20062;-57
2022/01/22 07:33:27;;;;;;;27.67;13.73;;;;;;;-2.91;70.64;97779.41;4679970;30;20058;-60
2022/01/22 07:35:54;;;;;;;22.08;11.38;;;;;;;-2.88;70.79;97789.41;4680661;30;20490;-55
2022/01/22 07:38:20;;;;;;;24.98;13.02;;;;;;;-2.86;70.83;97783.06;4679615;30;20141;-59
2022/01/22 07:40:47;;;;;;;29.00;13.40;;;;;;;-2.81;69.84;97790.28;4679863;30;20145;-56
2022/01/22 07:43:19;;;;;;;29.10;12.82;;;;;;;-2.58;69.50;97795.97;4665451;30;20050;-58
2022/01/22 07:46:05;;;;;;;27.23;13.02;;;;;;;-2.45;69.20;97810.81;4681285;30;20399;-57
2022/01/22 07:48:37;;;;;;;25.65;12.73;;;;;;;-2.19;68.29;97811.91;4652096;30;20196;-55
2022/01/22 07:51:09;;;;;;;28.13;12.73;;;;;;;-2.29;68.23;97813.09;4680896;30;20062;-57
2022/01/22 07:53:35;;;;;;;29.33;13.15;;;;;;;-2.43;68.64;97826.19;4678930;30;20046;-56
2022/01/22 07:56:06;;;;;;;29.20;13.93;;;;;;;-2.43;68.84;97827.00;4679132;30;20061;-54
2022/01/22 07:58:32;;;;;;;25.77;13.40;;;;;;;-2.63;68.52;97824.28;4679089;30;20065;-57
2022/01/22 08:00:57;;;;;;;29.10;13.55;;;;;;;-2.53;69.03;97836.91;4679638;30;20073;-56
2022/01/22 08:03:26;;;;;;;30.70;13.63;;;;;;;-2.50;69.55;97839.09;4679604;30;20086;-58
2022/01/22 08:06:21;;;;;;;25.60;12.38;;;;;;;-2.46;68.76;97836.97;4673241;30;20633;-55
2022/01/22 08:09:16;;;;;;;28.35;12.85;;;;;;;-2.34;67.75;97836.22;4665433;30;20474;-56
2022/01/22 08:11:57;;;;;;;27.05;12.45;;;;;;;-2.33;67.63;97844.78;4679613;30;20461;-55
2022/01/22 08:14:23;;;;;;;27.95;13.55;;;;;;;-2.28;68.23;97850.22;4679587;30;20112;-58
2022/01/22 08:16:49;;;;;;;28.35;12.95;;;;;;;-2.26;67.73;97856.03;4681647;30;20089;-57
2022/01/22 08:19:18;;;;;;;33.25;14.25;;;;;;;-2.39;67.38;97853.34;4682683;30;20061;-56
2022/01/22 08:21:46;;;;;;;26.35;13.80;;;;;;;-2.33;68.19;97865.56;4682603;30;20433;-54
2022/01/22 08:24:35;;;;;;;33.22;13.38;;;;;;;-2.31;67.75;97866.16;4666871;30;20152;-57
2022/01/22 08:27:16;;;;;;;29.08;13.70;;;;;;;-2.28;67.73;97869.19;4682884;30;20092;-56
2022/01/22 08:29:42;;;;;;;28.88;14.02;;;;;;;-2.17;67.70;97867.84;4682796;30;20147;-57
2022/01/22 08:32:32;;;;;;;27.77;12.98;;;;;;;-2.21;67.39;97865.81;4668484;30;20092;-55
2022/01/22 08:37:42;;;;;;;30.88;14.55;;;;;;;-2.05;67.47;97883.66;4682603;30;20080;-53
2022/01/22 08:40:10;;;;;;;31.20;14.20;;;;;;;-2.07;67.22;97888.25;4682807;30;20088;-56
2022/01/22 08:42:37;;;;;;;32.65;15.20;;;;;;;-2.04;67.84;97884.47;4682362;30;20057;-56
2022/01/22 08:45:04;;;;;;;35.30;16.08;;;;;;;-2.04;68.41;97889.66;4682498;30;20058;-56
2022/01/22 08:47:30;;;;;;;38.70;17.70;;;;;;;-1.96;67.31;97892.91;4682439;30;20092;-57
2022/01/22 08:49:56;;;;;;;36.03;15.40;;;;;;;-1.98;67.25;97894.88;4682264;30;20050;-56
2022/01/22 08:52:26;;;;;;;34.92;16.17;;;;;;;-2.06;67.03;97898.44;4668069;30;20046;-56
2022/01/22 08:54:52;;;;;;;34.92;16.00;;;;;;;-1.98;67.55;97896.69;4682544;30;20054;-59
2022/01/22 08:57:20;;;;;;;29.77;15.15;;;;;;;-1.89;67.08;97911.88;4682134;30;20053;-59
2022/01/22 08:59:59;;;;;;;27.58;14.38;;;;;;;-1.93;66.79;97907.28;4682163;30;20573;-55
2022/01/22 09:02:27;;;;;;;36.88;15.70;;;;;;;-1.99;67.09;97913.25;4653894;30;20512;-57
2022/01/22 09:05:16;;;;;;;34.50;15.98;;;;;;;-2.03;67.70;97917.22;4647738;30;20058;-59
2022/01/22 09:08:04;;;;;;;32.58;15.48;;;;;;;-1.87;67.63;97922.91;4652076;30;20069;-57
2022/01/22 09:10:53;;;;;;;30.10;15.65;;;;;;;-1.84;67.93;97926.91;4646617;30;20572;-61
2022/01/22 09:13:26;;;;;;;33.53;16.52;;;;;;;-1.85;67.71;97914.94;4663708;30;20054;-59
2022/01/22 09:16:06;;;;;;;33.55;16.20;;;;;;;-1.87;68.04;97933.28;4664280;30;20054;-57
2022/01/22 09:18:32;;;;;;;39.97;17.98;;;;;;;-1.83;67.69;97929.28;4636550;30;20085;-59
2022/01/22 09:21:08;;;;;;;34.08;16.25;;;;;;;-1.87;67.34;97932.50;4650171;30;20058;-59
2022/01/22 09:23:35;;;;;;;37.40;16.77;;;;;;;-1.91;67.11;97941.63;4650151;30;20730;-59
2022/01/22 09:26:06;;;;;;;35.58;15.55;;;;;;;-1.99;67.59;97942.63;4645293;30;20446;-59
2022/01/22 09:28:34;;;;;;;43.15;19.25;;;;;;;-1.91;67.96;97944.25;4663742;30;20090;-61
2022/01/22 09:31:00;;;;;;;43.20;18.10;;;;;;;-1.86;67.74;97947.06;4649479;30;20569;-59
2022/01/22 09:33:26;;;;;;;40.80;18.30;;;;;;;-2.00;67.70;97940.19;4663140;30;20592;-61
2022/01/22 09:36:04;;;;;;;41.72;18.05;;;;;;;-2.18;68.60;97945.91;4649104;30;20054;-62
2022/01/22 09:38:39;;;;;;;33.90;16.55;;;;;;;-2.21;68.38;97954.88;4669501;30;20124;-59
2022/01/22 09:41:15;;;;;;;35.17;16.20;;;;;;;-2.34;68.65;97942.63;4682300;30;20526;-62
2022/01/22 09:44:01;;;;;;;32.33;15.73;;;;;;;-2.44;68.71;97952.53;4669250;30;20066;-62
2022/01/22 09:46:40;;;;;;;38.45;17.00;;;;;;;-2.48;69.64;97948.69;4682322;30;20053;-61
2022/01/22 09:49:35;;;;;;;42.25;16.90;;;;;;;-2.59;69.37;97954.41;4656068;30;20062;-61
2022/01/22 09:52:09;;;;;;;38.70;15.80;;;;;;;-2.53;69.37;97956.25;4682355;30;20394;-60
2022/01/22 09:54:53;;;;;;;36.78;16.35;;;;;;;-2.53;70.12;97958.84;4682151;30;20082;-61
2022/01/22 09:57:39;;;;;;;37.45;17.08;;;;;;;-2.51;69.51;97969.84;4668822;30;20054;-59
2022/01/22 10:00:08;;;;;;;35.08;16.58;;;;;;;-2.54;69.65;97960.63;4681690;30;20550;-59
2022/01/22 10:02:50;;;;;;;37.10;17.35;;;;;;;-2.54;69.71;97963.22;4682275;30;20061;-57
2022/01/22 10:05:38;;;;;;;40.05;18.73;;;;;;;-2.47;70.22;97967.66;4666486;30;20429;-59
2022/01/22 10:08:31;;;;;;;44.40;18.60;;;;;;;-2.43;70.33;97968.91;4682316;30;20482;-60
2022/01/22 10:11:27;;;;;;;37.92;16.92;;;;;;;-2.39;69.70;97978.72;4673101;30;20066;-59
2022/01/22 10:14:19;;;;;;;39.83;18.65;;;;;;;-2.44;69.49;97977.66;4680222;30;20069;-59
2022/01/22 10:16:48;;;;;;;41.13;19.75;;;;;;;-2.42;69.92;97978.28;4681992;30;20050;-59
2022/01/22 10:19:21;;;;;;;41.53;18.88;;;;;;;-2.26;70.34;97985.81;4681824;30;20058;-59
2022/01/22 10:21:58;;;;;;;45.40;20.67;;;;;;;-2.17;70.26;97997.66;4682071;30;20042;-57
2022/01/22 10:24:35;;;;;;;43.80;20.63;;;;;;;-2.06;69.95;97991.94;4681796;30;20050;-59
2022/01/22 10:27:19;;;;;;;41.45;17.77;;;;;;;-2.09;69.11;97999.28;4680010;30;20046;-59
2022/01/22 10:29:57;;;;;;;38.67;17.80;;;;;;;-1.97;69.39;98000.38;4681734;30;20473;-57
2022/01/22 10:32:41;;;;;;;42.97;18.67;;;;;;;-1.87;69.65;98002.63;4680456;30;20441;-59
2022/01/22 10:35:27;;;;;;;39.28;18.77;;;;;;;-1.75;69.23;98006.28;4681480;30;20521;-59
2022/01/22 10:38:12;;;;;;;42.70;18.50;;;;;;;-1.68;68.57;98011.50;4680980;30;20109;-61
2022/01/22 10:40:40;;;;;;;38.97;18.35;;;;;;;-1.73;68.12;98019.09;4680731;30;20526;-60
2022/01/22 10:43:32;;;;;;;43.08;19.05;;;;;;;-1.80;68.16;98013.03;4681675;30;20050;-58
2022/01/22 10:48:54;;;;;;;50.35;19.73;;;;;;;-1.99;68.55;98032.72;4679887;30;20565;-58
2022/01/22 10:51:20;;;;;;;45.70;20.30;;;;;;;-1.84;69.29;98036.00;4681544;30;20108;-57
2022/01/22 10:54:00;;;;;;;44.40;19.90;;;;;;;-1.67;68.52;98031.31;4681062;30;20050;-59
2022/01/22 10:56:28;;;;;;;43.90;19.50;;;;;;;-1.57;68.47;98034.34;4681510;30;20060;-58
2022/01/22 10:59:06;;;;;;;47.97;20.65;;;;;;;-1.49;67.92;98034.19;4680414;30;20131;-56
2022/01/22 11:01:59;;;;;;;43.65;20.00;;;;;;;-1.46;66.64;98033.00;4681402;30;20149;-57
2022/01/22 11:04:26;;;;;;;47.03;19.05;;;;;;;-1.37;67.39;98043.03;4681668;30;20141;-57
2022/01/22 11:06:59;;;;;;;41.08;19.13;;;;;;;-1.31;66.56;98041.47;4675181;30;20057;-61
2022/01/22 11:09:28;;;;;;;40.78;19.17;;;;;;;-1.29;67.25;98041.28;4679623;30;20137;-65
2022/01/22 11:11:55;;;;;;;46.08;20.13;;;;;;;-1.35;66.11;98055.03;4680385;30;20053;-62
2022/01/22 11:14:20;;;;;;;48.45;21.20;;;;;;;-1.52;66.75;98060.56;4680143;30;20517;-63
2022/01/22 11:16:48;;;;;;;44.90;20.48;;;;;;;-1.58;67.39;98061.34;4681078;30;20049;-62
2022/01/22 11:19:19;;;;;;;54.20;20.60;;;;;;;-1.60;67.55;98068.50;4681286;30;20541;-64
2022/01/22 11:21:49;;;;;;;51.72;22.38;;;;;;;-1.68;68.29;98074.66;4665605;30;20429;-63
2022/01/22 11:24:18;;;;;;;49.40;20.67;;;;;;;-1.78;67.73;98078.59;4681151;30;20065;-62
2022/01/22 11:26:50;;;;;;;54.35;23.48;;;;;;;-1.80;67.94;98081.38;4681128;30;20060;-60
2022/01/22 11:29:16;;;;;;;45.65;19.90;;;;;;;-1.87;68.00;98076.13;4679705;30;20116;-61
2022/01/22 11:31:45;;;;;;;47.20;20.80;;;;;;;-1.91;68.29;98090.50;4681280;30;20044;-63
2022/01/22 11:34:14;;;;;;;60.63;22.23;;;;;;;-1.97;68.72;98091.25;4679780;30;20097;-61
2022/01/22 11:37:14;;;;;;;46.20;18.95;;;;;;;-2.02;68.98;98092.81;4665682;30;20050;-58
2022/01/22 11:39:40;;;;;;;39.20;16.25;;;;;;;-2.03;68.73;98088.59;4680775;30;20069;-59
2022/01/22 11:42:08;;;;;;;58.08;22.45;;;;;;;-2.16;69.53;98110.88;4676284;30;20153;-59
2022/01/22 11:44:52;;;;;;;49.08;20.85;;;;;;;-2.13;69.63;98113.09;4679592;30;20471;-61
2022/01/22 11:47:22;;;;;;;45.70;20.27;;;;;;;-2.06;70.06;98121.75;4679546;30;20057;-62
2022/01/22 11:50:07;;;;;;;39.95;18.77;;;;;;;-2.03;69.23;98120.56;4680135;30;20081;-63
2022/01/22 11:52:37;;;;;;;42.08;17.45;;;;;;;-2.08;69.37;98128.91;4684049;30;20096;-63
2022/01/22 11:55:08;;;;;;;51.70;20.02;;;;;;;-2.08;69.49;98138.50;4684202;30;20437;-62
2022/01/22 11:57:34;;;;;;;42.42;17.83;;;;;;;-2.19;69.90;98139.81;4683435;30;20422;-61
2022/01/22 12:00:25;;;;;;;46.60;18.20;;;;;;;-2.19;70.57;98152.00;4667709;30;20149;-62
2022/01/22 12:03:03;;;;;;;49.30;18.95;;;;;;;-2.11;70.39;98154.47;4682382;30;20512;-63
2022/01/22 12:05:30;;;;;;;44.65;19.33;;;;;;;-2.04;70.63;98157.09;4683850;30;20410;-61
2022/01/22 12:08:00;;;;;;;47.80;20.15;;;;;;;-2.13;69.97;98157.22;4696024;30;20054;-62
2022/01/22 12:10:37;;;;;;;39.63;17.80;;;;;;;-2.21;69.92;98167.72;4667648;30;20049;-60
2022/01/22 12:16:06;;;;;;;43.67;18.05;;;;;;;-2.31;70.12;98172.44;4682014;30;20101;-63
2022/01/22 12:18:35;;;;;;;51.08;22.05;;;;;;;-2.40;70.96;98163.97;4667745;30;20077;-62
2022/01/22 12:23:30;;;;;;;49.35;20.95;;;;;;;-2.30;70.92;98187.00;4682421;30;20065;-60
2022/01/22 12:25:58;;;;;;;48.58;20.25;;;;;;;-2.37;70.62;98179.16;4683129;30;20425;-60
2022/01/22 12:28:33;;;;;;;59.00;24.02;;;;;;;-2.34;71.47;98178.81;4682335;30;20054;-60
2022/01/22 12:31:15;;;;;;;50.17;22.65;;;;;;;-2.22;70.79;98189.50;4682306;30;20165;-62
2022/01/22 12:33:44;;;;;;;55.50;22.15;;;;;;;-2.25;70.47;98191.66;4683433;30;20046;-61
2022/01/22 12:36:17;;;;;;;54.88;24.15;;;;;;;-2.16;71.68;98195.75;4652458;30;20054;-60
2022/01/22 12:38:49;;;;;;;57.13;21.98;;;;;;;-2.03;70.33;98200.25;4665111;30;20411;-61
2022/01/22 12:41:36;;;;;;;57.95;21.70;;;;;;;-2.11;70.11;98201.19;4665926;30;20073;-61
2022/01/22 12:46:49;;;;;;;53.58;21.50;;;;;;;-2.08;70.97;98214.59;4666224;30;20054;-62
2022/01/22 12:49:16;;;;;;;51.13;20.38;;;;;;;-2.07;70.65;98216.22;4665223;30;20077;-61
2022/01/22 12:51:42;;;;;;;46.63;17.90;;;;;;;-2.11;70.22;98222.78;4666594;30;20053;-60
2022/01/22 12:54:08;;;;;;;51.53;21.33;;;;;;;-2.14;70.74;98232.72;4664084;30;20077;-63
2022/01/22 12:56:49;;;;;;;49.72;21.33;;;;;;;-2.16;70.02;98227.69;4669055;30;20050;-60
2022/01/22 12:59:18;;;;;;;44.63;19.65;;;;;;;-2.15;70.77;98237.09;4640944;30;20050;-61
2022/01/22 13:01:46;;;;;;;51.90;20.75;;;;;;;-2.19;70.49;98245.44;4664345;30;20054;-60
2022/01/22 13:04:13;;;;;;;50.53;20.05;;;;;;;-2.29;70.92;98243.94;4666898;30;20089;-61
2022/01/22 13:06:57;;;;;;;41.67;17.92;;;;;;;-2.34;70.98;98254.06;4667906;30;20047;-63
2022/01/22 13:09:56;;;;;;;45.22;19.60;;;;;;;-2.29;70.82;98258.72;4648276;30;20058;-61
2022/01/22 13:12:24;;;;;;;30.83;15.23;;;;;;;-2.38;70.87;98262.38;4663089;30;20113;-63
2022/01/22 13:15:02;;;;;;;37.65;16.48;;;;;;;-2.41;70.93;98261.00;4635732;30;20062;-61
2022/01/22 13:17:35;;;;;;;36.92;16.60;;;;;;;-2.51;70.87;98270.81;4633401;30;20049;-62